Time;durP1;ratioP1;P1;durP2;ratioP2;P2;SDS_P1;SDS_P2;PMS_P1;PMS_P2;Temp;Humidity;BMP_temperature;BMP_pressure;BME280_temperature;BME280_humidity;BME280_pressure;Samples;Min_cycle;Max_cycle;Signal;HPM_P1;HPM_P2
2023/01/23 00:01:15;;;;;;;3.08;2.97;;;;;;;-1.10;85.78;96434.19;4322206;32;20177;-63
2023/01/23 00:03:43;;;;;;;3.35;3.15;;;;;;;-0.91;84.43;96432.69;4289176;33;20204;-63
2023/01/23 00:06:13;;;;;;;2.55;2.45;;;;;;;-1.15;84.28;96438.38;4331628;32;20235;-64
2023/01/23 00:08:41;;;;;;;3.40;2.50;;;;;;;-1.39;84.76;96435.22;4312528;32;20277;-63
2023/01/23 00:11:09;;;;;;;3.50;3.20;;;;;;;-1.63;86.39;96440.06;4321599;32;20280;-63
2023/01/23 00:13:35;;;;;;;4.70;4.05;;;;;;;-1.45;86.14;96451.59;4321973;32;20259;-63
2023/01/23 00:16:10;;;;;;;2.00;1.70;;;;;;;-1.41;85.69;96452.81;4300688;33;20182;-63
2023/01/23 00:18:36;;;;;;;2.25;2.25;;;;;;;-1.31;85.13;96454.28;4317188;32;20178;-63
2023/01/23 00:21:10;;;;;;;3.00;2.90;;;;;;;-1.06;83.60;96448.44;4287099;33;20178;-63
2023/01/23 00:23:36;;;;;;;2.97;2.80;;;;;;;-1.18;83.20;96449.97;4307567;33;20197;-63
2023/01/23 00:26:05;;;;;;;3.00;2.80;;;;;;;-1.18;83.41;96455.16;4322907;33;20227;-62
2023/01/23 00:28:30;;;;;;;2.22;1.95;;;;;;;-1.02;82.79;96454.03;4317409;32;20372;-63
2023/01/23 00:31:20;;;;;;;2.67;2.43;;;;;;;-1.13;82.66;96446.78;4313540;33;20212;-63
2023/01/23 00:33:45;;;;;;;3.60;2.60;;;;;;;-0.97;82.51;96451.69;4300192;33;20197;-63
2023/01/23 00:36:14;;;;;;;2.57;1.97;;;;;;;-1.13;82.72;96446.78;4317964;33;20250;-63
2023/01/23 00:38:40;;;;;;;2.67;2.50;;;;;;;-1.20;83.05;96453.75;4327553;33;20203;-63
2023/01/23 00:41:07;;;;;;;3.55;3.35;;;;;;;-0.98;82.72;96447.47;4271601;33;20201;-63
2023/01/23 00:43:34;;;;;;;3.42;3.12;;;;;;;-1.03;83.00;96442.03;4308061;33;20231;-62
2023/01/23 00:46:00;;;;;;;3.28;3.08;;;;;;;-1.31;83.87;96447.28;4326184;32;20311;-62
2023/01/23 00:48:26;;;;;;;2.15;2.05;;;;;;;-1.02;82.95;96443.63;4327887;33;20233;-63
2023/01/23 00:50:52;;;;;;;2.27;2.10;;;;;;;-1.04;82.52;96456.06;4315114;33;20236;-62
2023/01/23 00:53:17;;;;;;;2.23;2.17;;;;;;;-1.02;82.24;96448.84;4317467;33;20221;-63
2023/01/23 00:55:44;;;;;;;2.60;2.37;;;;;;;-0.98;82.85;96454.47;4306628;32;20194;-63
2023/01/23 00:58:10;;;;;;;2.85;2.75;;;;;;;-1.14;82.78;96456.41;4320075;32;20204;-66
2023/01/23 01:00:37;;;;;;;2.27;2.20;;;;;;;-1.00;82.57;96459.06;4257202;33;20213;-63
2023/01/23 01:03:05;;;;;;;2.97;2.87;;;;;;;-1.21;83.34;96460.75;4293893;33;20179;-63
2023/01/23 01:05:30;;;;;;;3.70;3.45;;;;;;;-1.14;83.74;96471.22;4313750;33;20212;-63
2023/01/23 01:07:58;;;;;;;3.17;2.97;;;;;;;-1.10;84.11;96468.03;4324766;32;20186;-63
2023/01/23 01:10:28;;;;;;;1.92;1.80;;;;;;;-0.84;83.17;96472.59;4311440;33;20179;-62
2023/01/23 01:13:00;;;;;;;3.60;1.98;;;;;;;-0.95;83.17;96469.72;4315990;33;20178;-62
2023/01/23 01:15:30;;;;;;;1.55;1.50;;;;;;;-0.85;83.50;96485.81;4306342;32;20326;-62
2023/01/23 01:17:58;;;;;;;3.78;3.45;;;;;;;-1.12;84.24;96474.44;4326430;32;20194;-63
2023/01/23 01:20:24;;;;;;;2.00;2.00;;;;;;;-0.79;83.97;96480.59;4302737;32;20209;-63
2023/01/23 01:22:51;;;;;;;3.78;3.47;;;;;;;-0.54;82.81;96472.31;4314875;32;20178;-63
2023/01/23 01:25:19;;;;;;;4.68;4.35;;;;;;;-0.40;82.09;96471.34;4321087;32;20201;-63
2023/01/23 01:27:45;;;;;;;2.97;2.87;;;;;;;-0.35;81.38;96477.56;4343739;32;20208;-63
2023/01/23 01:30:12;;;;;;;2.53;2.43;;;;;;;-0.37;81.59;96481.38;4305999;32;20190;-63
2023/01/23 01:32:39;;;;;;;4.22;3.08;;;;;;;-0.26;81.57;96475.59;4333309;32;20189;-63
2023/01/23 01:35:08;;;;;;;2.80;2.70;;;;;;;-0.45;82.14;96471.16;4303367;33;20196;-63
2023/01/23 01:37:39;;;;;;;2.60;2.40;;;;;;;-0.38;81.97;96477.16;4291998;33;20186;-62
2023/01/23 01:40:08;;;;;;;2.67;2.58;;;;;;;-0.35;81.24;96471.56;4313290;32;20276;-62
2023/01/23 01:42:43;;;;;;;2.70;2.60;;;;;;;-0.35;81.81;96458.53;4294722;32;20197;-62
2023/01/23 01:45:46;;;;;;;2.78;2.58;;;;;;;-0.23;81.52;96464.78;4331248;32;20240;-63
2023/01/23 01:48:14;;;;;;;1.80;1.80;;;;;;;-0.48;82.41;96455.91;4319910;32;20322;-63
2023/01/23 01:50:39;;;;;;;2.53;2.40;;;;;;;-0.51;82.84;96456.28;4318867;32;20218;-63
2023/01/23 01:53:06;;;;;;;3.10;2.90;;;;;;;-0.30;82.52;96445.72;4325997;32;20200;-62
2023/01/23 01:55:33;;;;;;;2.72;2.62;;;;;;;-0.47;83.10;96449.69;4330657;32;20181;-62
2023/01/23 01:57:59;;;;;;;2.00;1.90;;;;;;;-0.58;83.64;96448.44;4336421;32;20306;-63
2023/01/23 02:00:25;;;;;;;1.83;1.73;;;;;;;-0.43;83.78;96456.13;4340496;32;20197;-63
2023/01/23 02:03:02;;;;;;;3.25;3.15;;;;;;;-0.13;82.78;96449.56;4342794;32;20185;-62
2023/01/23 02:05:44;;;;;;;3.83;2.67;;;;;;;-0.32;82.92;96445.09;4325182;32;20182;-63
2023/01/23 02:08:49;;;;;;;2.85;2.62;;;;;;;-0.16;83.29;96439.53;4310427;32;20196;-63
2023/01/23 02:11:17;;;;;;;2.65;2.55;;;;;;;0.02;82.45;96446.75;4276149;33;20186;-63
2023/01/23 02:13:45;;;;;;;3.62;2.95;;;;;;;-0.03;82.33;96441.37;4317783;32;20273;-63
2023/01/23 02:16:16;;;;;;;3.10;2.90;;;;;;;-0.10;82.75;96437.94;4299151;32;20196;-63
2023/01/23 02:18:48;;;;;;;4.15;3.87;;;;;;;-0.13;83.06;96438.31;4344647;32;20202;-64
2023/01/23 02:21:16;;;;;;;3.10;2.80;;;;;;;-0.16;83.08;96430.91;4314358;33;20224;-63
2023/01/23 02:24:07;;;;;;;4.15;3.85;;;;;;;-0.30;83.94;96427.47;4296288;32;20187;-64
2023/01/23 02:26:47;;;;;;;2.97;2.33;;;;;;;0.02;83.07;96428.50;4315200;32;20293;-62
2023/01/23 02:29:15;;;;;;;3.42;3.22;;;;;;;0.04;82.59;96430.91;4298101;33;20244;-63
2023/01/23 02:31:44;;;;;;;4.55;4.35;;;;;;;0.00;81.93;96423.47;4311165;33;20203;-63
2023/01/23 02:34:12;;;;;;;4.70;4.50;;;;;;;0.03;82.33;96432.72;4311799;32;20257;-63
2023/01/23 02:36:41;;;;;;;6.45;3.55;;;;;;;-0.08;82.81;96428.91;4307492;32;20189;-62
2023/01/23 02:39:21;;;;;;;3.67;3.58;;;;;;;-0.14;83.19;96426.28;4290783;33;20182;-63
2023/01/23 02:41:49;;;;;;;3.50;2.72;;;;;;;-0.12;83.24;96427.69;4328828;32;20189;-63
2023/01/23 02:44:24;;;;;;;2.67;2.58;;;;;;;-0.21;83.50;96426.31;4306513;32;20178;-63
2023/01/23 02:46:49;;;;;;;4.03;3.62;;;;;;;-0.11;83.20;96423.28;4315587;32;20328;-63
2023/01/23 02:49:14;;;;;;;3.43;3.33;;;;;;;-0.20;83.57;96420.06;4322189;32;20201;-63
2023/01/23 02:51:41;;;;;;;4.13;3.80;;;;;;;-0.10;84.06;96422.28;4327646;32;20189;-63
2023/01/23 02:54:07;;;;;;;4.62;4.25;;;;;;;0.15;82.99;96425.13;4330970;32;20207;-63
2023/01/23 02:56:34;;;;;;;3.30;3.10;;;;;;;0.13;82.99;96416.69;4316041;32;20182;-63
2023/01/23 03:01:46;;;;;;;2.42;2.28;;;;;;;-0.18;83.87;96433.69;4320899;32;20185;-63
2023/01/23 03:04:13;;;;;;;2.62;2.53;;;;;;;0.13;83.15;96430.53;4336954;32;20186;-63
2023/01/23 03:06:38;;;;;;;2.67;2.58;;;;;;;0.13;82.37;96433.16;4321966;32;20280;-64
2023/01/23 03:09:08;;;;;;;4.60;4.40;;;;;;;-0.40;83.65;96440.06;4328657;32;20194;-63
2023/01/23 03:11:36;;;;;;;3.83;3.62;;;;;;;-0.39;83.46;96444.28;4314031;32;20219;-61
2023/01/23 03:14:05;;;;;;;4.37;4.05;;;;;;;-0.49;84.54;96446.47;4342621;32;20185;-60
2023/01/23 03:16:31;;;;;;;5.12;4.78;;;;;;;-0.41;84.26;96447.06;4328996;32;20185;-60
2023/01/23 03:19:03;;;;;;;3.92;3.72;;;;;;;-0.26;84.09;96459.97;4327118;32;20186;-60
2023/01/23 03:21:29;;;;;;;3.83;3.62;;;;;;;-0.11;83.67;96454.56;4328936;32;20279;-60
2023/01/23 03:23:56;;;;;;;5.40;3.43;;;;;;;-0.23;83.55;96451.75;4288024;32;20198;-60
2023/01/23 03:26:23;;;;;;;4.10;3.80;;;;;;;-0.17;83.18;96447.53;4326700;32;20189;-63
2023/01/23 03:31:35;;;;;;;3.20;3.00;;;;;;;-0.01;82.55;96450.59;4313938;32;20252;-63
2023/01/23 03:34:01;;;;;;;4.35;4.15;;;;;;;-0.04;82.92;96442.37;4326814;32;20236;-63
2023/01/23 03:36:26;;;;;;;4.60;4.20;;;;;;;-0.16;82.87;96441.31;4322820;32;20182;-63
2023/01/23 03:41:44;;;;;;;3.25;3.15;;;;;;;-0.29;83.40;96443.91;4339178;32;20249;-63
2023/01/23 03:44:10;;;;;;;4.18;3.87;;;;;;;-0.43;84.49;96443.88;4311691;32;20244;-63
2023/01/23 03:46:36;;;;;;;2.22;2.17;;;;;;;-0.20;84.22;96448.72;4319922;32;20266;-63
2023/01/23 03:49:03;;;;;;;2.95;2.85;;;;;;;0.10;82.96;96446.56;4332023;32;20185;-63
2023/01/23 03:51:29;;;;;;;3.28;2.67;;;;;;;0.13;82.87;96445.38;4327278;32;21742;-63
2023/01/23 03:53:54;;;;;;;4.07;3.47;;;;;;;-0.14;83.35;96450.56;4342444;32;20186;-63
2023/01/23 03:56:19;;;;;;;5.77;3.23;;;;;;;0.07;82.98;96454.81;4343954;32;20177;-63
2023/01/23 03:58:47;;;;;;;2.37;2.27;;;;;;;0.14;82.84;96450.41;4343825;32;20189;-63
2023/01/23 04:01:13;;;;;;;3.62;3.40;;;;;;;0.09;82.87;96441.56;4335596;32;20256;-63
2023/01/23 04:03:41;;;;;;;2.40;2.03;;;;;;;0.29;82.14;96448.41;4354666;32;20190;-63
2023/01/23 04:06:06;;;;;;;3.22;2.92;;;;;;;0.16;82.17;96448.41;4335861;32;20200;-63
2023/01/23 04:08:33;;;;;;;2.83;2.73;;;;;;;0.20;81.99;96449.59;4338846;32;20206;-63
2023/01/23 04:11:06;;;;;;;3.00;2.90;;;;;;;0.27;82.08;96454.81;4306849;33;20261;-63
2023/01/23 04:13:34;;;;;;;2.22;2.12;;;;;;;0.20;82.20;96456.63;4316886;33;20279;-63
2023/01/23 04:16:01;;;;;;;2.55;2.35;;;;;;;0.35;81.58;96465.06;4291663;32;20299;-62
2023/01/23 04:18:29;;;;;;;3.22;3.03;;;;;;;0.41;80.99;96459.06;4318174;32;20196;-63
2023/01/23 04:20:55;;;;;;;3.42;3.33;;;;;;;0.45;81.07;96462.84;4341398;32;20186;-62
2023/01/23 04:23:23;;;;;;;3.53;3.33;;;;;;;0.17;81.54;96459.63;4333225;32;20203;-63
2023/01/23 04:25:49;;;;;;;2.80;1.95;;;;;;;0.06;81.75;96462.81;4318593;32;20302;-63
2023/01/23 04:28:15;;;;;;;4.00;3.80;;;;;;;0.05;82.26;96462.00;4312919;32;20180;-63
2023/01/23 04:30:47;;;;;;;4.77;4.37;;;;;;;0.19;82.06;96471.47;4340683;32;20174;-64
2023/01/23 04:33:13;;;;;;;2.60;2.50;;;;;;;0.08;82.17;96471.25;4322184;32;20236;-63
2023/01/23 04:35:39;;;;;;;5.40;2.50;;;;;;;0.20;82.19;96469.69;4305370;32;20244;-63
2023/01/23 04:38:07;;;;;;;2.03;2.03;;;;;;;0.23;81.49;96466.66;4308844;33;20174;-63
2023/01/23 04:40:33;;;;;;;2.80;2.55;;;;;;;0.25;81.49;96464.63;4335374;32;20248;-62
2023/01/23 04:42:59;;;;;;;2.95;2.85;;;;;;;0.43;80.98;96464.03;4312115;32;20201;-63
2023/01/23 04:45:29;;;;;;;2.53;2.40;;;;;;;0.40;81.28;96465.28;4296614;32;20202;-63
2023/01/23 04:47:55;;;;;;;2.87;2.78;;;;;;;0.22;81.26;96465.03;4330846;32;20204;-63
2023/01/23 04:50:21;;;;;;;2.55;2.45;;;;;;;0.22;81.79;96467.66;4343091;32;20217;-63
2023/01/23 04:52:47;;;;;;;2.25;2.15;;;;;;;0.33;81.57;96464.47;4329618;32;20243;-63
2023/01/23 04:55:12;;;;;;;3.60;3.40;;;;;;;0.20;82.10;96464.47;4302706;32;20236;-63
2023/01/23 04:57:38;;;;;;;2.43;2.30;;;;;;;0.18;82.47;96471.69;4273776;33;20205;-63
2023/01/23 05:00:05;;;;;;;5.03;4.20;;;;;;;0.13;82.62;96459.22;4323192;32;20201;-63
2023/01/23 05:02:31;;;;;;;2.92;2.80;;;;;;;0.21;81.82;96456.41;4331513;32;20216;-63
2023/01/23 05:04:58;;;;;;;2.40;2.30;;;;;;;0.10;82.49;96464.84;4314170;32;20173;-63
2023/01/23 05:07:25;;;;;;;3.03;2.92;;;;;;;0.13;81.97;96466.25;4319176;32;20287;-63
2023/01/23 05:09:52;;;;;;;2.90;2.70;;;;;;;0.09;82.66;96468.44;4318610;33;20192;-63
2023/01/23 05:12:17;;;;;;;3.80;3.55;;;;;;;0.26;82.00;96468.84;4313327;32;20203;-63
2023/01/23 05:14:44;;;;;;;3.00;2.90;;;;;;;0.31;82.00;96461.25;4316884;32;20185;-63
2023/01/23 05:17:09;;;;;;;3.33;3.12;;;;;;;0.27;82.45;96460.03;4303023;32;20185;-67
2023/01/23 05:19:36;;;;;;;7.43;6.77;;;;;;;0.22;82.41;96465.84;4322792;32;20217;-62
2023/01/23 05:22:03;;;;;;;4.62;2.75;;;;;;;0.31;82.07;96464.66;4346069;32;20271;-62
2023/01/23 05:24:28;;;;;;;4.65;3.50;;;;;;;0.51;81.42;96471.69;4316917;33;20178;-62
2023/01/23 05:26:54;;;;;;;3.23;2.97;;;;;;;0.52;81.10;96473.28;4325992;32;20182;-62
2023/01/23 05:29:24;;;;;;;4.18;3.95;;;;;;;0.49;80.74;96481.50;4322641;32;20182;-62
2023/01/23 05:31:49;;;;;;;3.28;3.00;;;;;;;0.12;81.69;96490.72;4326281;32;20190;-63
2023/01/23 05:34:16;;;;;;;2.93;2.73;;;;;;;0.15;82.21;96487.72;4306049;32;20256;-63
2023/01/23 05:36:43;;;;;;;5.37;4.10;;;;;;;0.09;82.18;96491.12;4311546;33;20277;-63
2023/01/23 05:39:08;;;;;;;3.28;3.08;;;;;;;0.09;82.20;96493.72;4327791;32;20185;-63
2023/01/23 05:41:34;;;;;;;3.90;3.70;;;;;;;0.12;81.47;96490.72;4321721;33;20182;-63
2023/01/23 05:44:00;;;;;;;2.30;2.20;;;;;;;0.19;81.54;96505.41;4316138;32;20345;-62
2023/01/23 05:46:25;;;;;;;2.77;2.60;;;;;;;0.09;82.16;96504.16;4330476;32;20189;-61
2023/01/23 05:48:51;;;;;;;2.27;2.17;;;;;;;0.22;81.58;96504.97;4307838;32;20197;-62
2023/01/23 05:51:19;;;;;;;3.70;3.47;;;;;;;0.02;82.07;96505.94;4336960;32;20190;-62
2023/01/23 05:53:45;;;;;;;3.70;3.50;;;;;;;0.14;82.04;96497.34;4312922;32;20240;-62
2023/01/23 05:56:11;;;;;;;3.78;3.58;;;;;;;0.27;81.43;96494.75;4336214;32;20193;-62
2023/01/23 05:58:39;;;;;;;2.23;2.13;;;;;;;0.36;81.60;96490.16;4281833;33;20221;-62
2023/01/23 06:01:05;;;;;;;2.70;2.50;;;;;;;0.46;81.39;96490.53;4311441;32;20193;-62
2023/01/23 06:03:31;;;;;;;2.78;2.58;;;;;;;0.55;80.70;96491.97;4290593;32;20301;-62
2023/01/23 06:05:56;;;;;;;3.00;2.80;;;;;;;0.64;80.22;96489.94;4275987;32;20187;-61
2023/01/23 06:08:23;;;;;;;4.03;3.67;;;;;;;0.37;80.11;96488.34;4323304;32;20288;-61
2023/01/23 06:10:50;;;;;;;4.40;4.20;;;;;;;-0.15;82.84;96487.25;4309172;32;20234;-61
2023/01/23 06:13:18;;;;;;;3.70;3.50;;;;;;;0.09;82.30;96485.91;4310418;32;20190;-61
2023/01/23 06:15:45;;;;;;;2.97;2.87;;;;;;;0.09;82.17;96491.12;4343291;32;20225;-62
2023/01/23 06:18:11;;;;;;;2.50;2.40;;;;;;;0.05;82.70;96501.13;4310715;32;20225;-68
2023/01/23 06:20:37;;;;;;;3.33;2.92;;;;;;;-0.05;83.77;96509.34;4334982;32;20173;-61
2023/01/23 06:23:02;;;;;;;2.63;2.53;;;;;;;0.15;83.50;96508.59;4280222;32;20182;-62
2023/01/23 06:25:27;;;;;;;4.37;4.07;;;;;;;0.26;83.46;96510.59;4317468;32;20264;-61
2023/01/23 06:27:54;;;;;;;2.03;2.03;;;;;;;0.31;82.41;96516.03;4306347;32;20232;-61
2023/01/23 06:30:20;;;;;;;2.83;2.72;;;;;;;0.19;82.96;96509.81;4334302;32;20268;-62
2023/01/23 06:32:46;;;;;;;4.72;4.40;;;;;;;0.42;82.53;96509.41;4323449;32;20186;-62
2023/01/23 06:35:11;;;;;;;4.13;3.83;;;;;;;0.42;82.84;96514.62;4330612;32;20196;-62
2023/01/23 06:37:36;;;;;;;2.47;2.37;;;;;;;0.13;83.71;96510.59;4343963;32;20191;-63
2023/01/23 06:40:11;;;;;;;3.63;3.43;;;;;;;0.19;84.19;96504.59;4315080;32;20182;-62
2023/01/23 06:42:39;;;;;;;5.05;4.55;;;;;;;0.31;83.65;96497.78;4281893;33;20256;-62
2023/01/23 06:45:05;;;;;;;4.40;4.12;;;;;;;0.35;83.61;96496.38;4300505;32;20220;-62
2023/01/23 06:47:32;;;;;;;4.80;4.32;;;;;;;0.17;84.41;96491.75;4302079;32;20332;-62
2023/01/23 06:49:57;;;;;;;3.50;3.30;;;;;;;0.00;85.68;96490.53;4332435;32;20205;-61
2023/01/23 06:52:25;;;;;;;4.90;4.60;;;;;;;-0.14;87.33;96494.87;4333267;32;20232;-62
2023/01/23 06:54:51;;;;;;;4.47;4.07;;;;;;;-0.12;88.04;96500.69;4305082;32;20222;-61
2023/01/23 06:57:19;;;;;;;3.42;3.22;;;;;;;0.13;88.15;96502.78;4292318;32;20186;-61
2023/01/23 06:59:44;;;;;;;4.97;4.65;;;;;;;0.04;89.36;96490.91;4335757;32;20247;-61
2023/01/23 07:02:14;;;;;;;5.40;4.97;;;;;;;-0.03;90.28;96499.53;4330637;32;20181;-62
2023/01/23 07:04:39;;;;;;;4.45;4.15;;;;;;;0.35;89.26;96509.41;4318007;32;20190;-62
2023/01/23 07:07:04;;;;;;;5.03;4.57;;;;;;;0.24;89.60;96507.38;4317147;32;20182;-62
2023/01/23 07:09:31;;;;;;;4.70;4.40;;;;;;;0.25;89.79;96509.00;4330607;32;20271;-62
2023/01/23 07:11:56;;;;;;;7.00;6.35;;;;;;;0.06;91.71;96510.56;4308823;32;20253;-62
2023/01/23 07:14:22;;;;;;;4.23;4.03;;;;;;;-0.23;93.41;96511.72;4305084;32;20224;-61
2023/01/23 07:16:49;;;;;;;2.53;2.43;;;;;;;0.15;94.46;96525.03;4302862;32;20258;-61
2023/01/23 07:19:14;;;;;;;5.53;5.13;;;;;;;3.49;100.00;96505.59;4316069;32;20217;-60
2023/01/23 07:21:39;;;;;;;10.47;8.20;;;;;;;4.82;100.00;96519.31;4327520;32;20353;-59
2023/01/23 07:24:05;;;;;;;8.37;7.50;;;;;;;5.63;100.00;96504.50;4302463;32;20198;-59
2023/01/23 07:26:32;;;;;;;8.00;6.93;;;;;;;5.95;98.03;96518.91;4313216;32;20316;-59
2023/01/23 07:28:59;;;;;;;7.33;6.67;;;;;;;5.47;77.69;96527.09;4321057;32;20231;-62
2023/01/23 07:31:26;;;;;;;5.63;5.23;;;;;;;6.82;80.09;96524.66;4325273;32;20322;-52
2023/01/23 07:34:01;;;;;;;6.77;6.23;;;;;;;6.22;74.44;96534.16;4287884;32;20291;-57
2023/01/23 07:36:28;;;;;;;8.07;7.03;;;;;;;6.68;74.72;96531.25;4308531;32;20177;-54
2023/01/23 07:38:57;;;;;;;6.33;5.73;;;;;;;6.66;72.12;96524.63;4299233;32;20401;-54
2023/01/23 07:41:24;;;;;;;6.43;5.90;;;;;;;6.71;69.28;96530.78;4273833;32;20279;-47
2023/01/23 07:43:50;;;;;;;7.83;6.63;;;;;;;7.58;75.23;96511.75;4291248;32;20439;-52
2023/01/23 07:46:16;;;;;;;9.37;7.33;;;;;;;8.20;69.53;96516.72;4277038;32;20278;-58
2023/01/23 07:48:43;;;;;;;8.33;7.63;;;;;;;7.79;66.70;96515.47;4317664;32;20209;-60
2023/01/23 07:51:09;;;;;;;7.10;6.50;;;;;;;7.80;65.29;96517.06;4321944;32;20309;-54
2023/01/23 07:53:35;;;;;;;9.47;7.43;;;;;;;7.28;64.39;96527.97;4315699;33;20434;-60
2023/01/23 07:56:05;;;;;;;8.50;7.67;;;;;;;4.73;68.44;96545.12;4327977;32;20449;-60
2023/01/23 07:58:32;;;;;;;6.13;5.70;;;;;;;2.95;76.93;96549.06;4328294;32;20278;-61
2023/01/23 08:00:58;;;;;;;6.23;5.00;;;;;;;2.08;81.23;96554.06;4313404;32;20279;-59
2023/01/23 08:03:27;;;;;;;6.33;5.73;;;;;;;1.28;86.08;96565.00;4335762;32;20310;-60
2023/01/23 08:05:53;;;;;;;5.63;5.20;;;;;;;0.88;88.95;96559.03;4301351;32;20191;-61
2023/01/23 08:08:19;;;;;;;6.17;5.53;;;;;;;0.57;90.32;96564.84;4309949;32;20271;-60
2023/01/23 08:10:45;;;;;;;6.13;5.80;;;;;;;0.66;90.98;96564.44;4326025;32;20348;-62
2023/01/23 08:13:13;;;;;;;5.30;4.80;;;;;;;0.45;91.99;96554.19;4325730;32;20201;-61
2023/01/23 08:15:41;;;;;;;5.73;5.23;;;;;;;0.38;92.74;96557.81;4333319;32;20360;-60
2023/01/23 08:18:07;;;;;;;4.53;4.13;;;;;;;0.30;92.67;96554.38;4324569;32;20274;-60
2023/01/23 08:20:32;;;;;;;3.83;3.53;;;;;;;0.35;92.50;96545.94;4320093;32;20321;-60
2023/01/23 08:22:59;;;;;;;3.43;3.23;;;;;;;0.37;92.52;96549.16;4312672;32;20193;-60
2023/01/23 08:25:26;;;;;;;3.92;3.72;;;;;;;0.27;92.91;96548.75;4322032;32;20212;-62
2023/01/23 08:27:52;;;;;;;3.85;3.62;;;;;;;0.46;93.00;96534.09;4314500;32;20190;-61
2023/01/23 08:30:18;;;;;;;2.37;2.30;;;;;;;0.41;92.60;96545.16;4327296;32;20186;-61
2023/01/23 08:32:43;;;;;;;4.60;4.20;;;;;;;0.45;92.35;96545.53;4322494;32;20263;-61
2023/01/23 08:35:11;;;;;;;5.80;4.97;;;;;;;0.42;91.99;96551.97;4329748;32;20183;-60
2023/01/23 08:37:41;;;;;;;3.30;3.17;;;;;;;0.48;91.93;96556.41;4268971;33;20190;-60
2023/01/23 08:40:11;;;;;;;4.50;4.10;;;;;;;0.70;91.64;96570.06;4294509;33;20186;-61
2023/01/23 08:42:38;;;;;;;4.03;2.30;;;;;;;0.70;90.88;96567.47;4311491;32;20204;-59
2023/01/23 08:45:07;;;;;;;2.45;2.35;;;;;;;0.89;90.83;96564.03;4324615;32;20201;-60
2023/01/23 08:47:35;;;;;;;5.12;4.45;;;;;;;0.87;90.72;96549.56;4329558;32;20208;-60
2023/01/23 08:50:04;;;;;;;4.00;3.77;;;;;;;0.74;90.89;96544.38;4326013;32;20260;-60
2023/01/23 08:52:33;;;;;;;6.37;4.10;;;;;;;0.84;90.87;96542.13;4309205;32;20334;-60
2023/01/23 08:55:00;;;;;;;4.62;4.18;;;;;;;0.84;90.95;96535.13;4320707;33;20270;-60
2023/01/23 08:57:25;;;;;;;5.90;5.40;;;;;;;0.82;91.45;96552.00;4321540;32;20261;-60
2023/01/23 08:59:52;;;;;;;5.10;4.77;;;;;;;0.82;91.47;96557.25;4329530;32;20285;-59
2023/01/23 09:02:17;;;;;;;3.70;3.50;;;;;;;0.93;91.00;96556.63;4337678;32;20247;-60
2023/01/23 09:04:42;;;;;;;4.90;4.70;;;;;;;0.85;91.65;96556.81;4329712;32;20174;-60
2023/01/23 09:07:08;;;;;;;2.93;2.83;;;;;;;1.15;91.22;96557.19;4315022;32;20182;-59
2023/01/23 09:09:34;;;;;;;4.87;4.63;;;;;;;1.02;90.15;96561.44;4294774;32;20186;-60
2023/01/23 09:15:23;;;;;;;4.30;3.95;;;;;;;1.36;90.18;96555.16;4282178;33;20224;-60
2023/01/23 09:17:49;;;;;;;3.70;3.58;;;;;;;0.99;90.38;96564.47;4316716;32;20193;-61
2023/01/23 09:20:15;;;;;;;4.30;3.80;;;;;;;1.43;89.79;96564.81;4330603;32;20199;-59
2023/01/23 09:22:44;;;;;;;5.53;5.13;;;;;;;1.34;89.02;96572.84;4330178;32;20279;-65
2023/01/23 09:25:10;;;;;;;2.63;2.47;;;;;;;1.46;89.37;96559.12;4292688;32;20313;-60
2023/01/23 09:27:35;;;;;;;4.23;3.90;;;;;;;1.25;89.19;96558.38;4283446;32;20326;-60
2023/01/23 09:30:00;;;;;;;3.57;3.27;;;;;;;1.37;89.36;96555.97;4250947;33;20399;-60
2023/01/23 09:32:26;;;;;;;3.60;3.47;;;;;;;1.34;88.90;96546.72;4313560;32;20226;-61
2023/01/23 09:34:53;;;;;;;4.33;4.03;;;;;;;1.50;88.93;96539.41;4320229;32;20190;-61
2023/01/23 09:37:20;;;;;;;4.93;4.63;;;;;;;1.48;88.89;96547.47;4324422;32;20203;-60
2023/01/23 09:39:46;;;;;;;5.07;4.03;;;;;;;1.48;88.83;96550.09;4332094;32;20278;-62
2023/01/23 09:42:30;;;;;;;5.80;5.30;;;;;;;1.51;89.50;96535.81;4320092;32;20313;-63
2023/01/23 09:45:08;;;;;;;3.73;3.63;;;;;;;1.69;87.84;96538.56;4316482;32;20182;-60
2023/01/23 09:48:18;;;;;;;5.60;5.10;;;;;;;1.78;87.86;96553.00;4346876;32;20279;-60
2023/01/23 09:50:59;;;;;;;3.77;3.57;;;;;;;2.02;87.04;96560.16;4283862;32;20294;-61
2023/01/23 09:53:37;;;;;;;2.13;2.03;;;;;;;1.77;86.57;96569.72;4328580;32;20393;-60
2023/01/23 09:56:26;;;;;;;3.07;2.90;;;;;;;1.65;87.53;96558.31;4320089;32;20389;-60
2023/01/23 09:59:34;;;;;;;4.03;3.83;;;;;;;1.76;87.77;96554.22;4332141;32;20271;-61
2023/01/23 10:02:01;;;;;;;5.57;5.10;;;;;;;1.93;87.01;96550.94;4314587;32;20274;-61
2023/01/23 10:04:28;;;;;;;5.60;5.30;;;;;;;1.77;87.45;96556.63;4315818;32;20282;-60
2023/01/23 10:07:02;;;;;;;4.97;3.70;;;;;;;1.85;86.91;96547.75;4315585;32;20320;-60
2023/01/23 10:09:50;;;;;;;3.70;3.50;;;;;;;1.98;86.78;96542.47;4302170;32;20376;-60
2023/01/23 10:12:27;;;;;;;3.77;3.57;;;;;;;2.18;85.47;96539.75;4342283;32;20273;-61
2023/01/23 10:15:18;;;;;;;3.37;3.23;;;;;;;2.05;84.98;96541.44;4322198;32;20294;-61
2023/01/23 10:17:50;;;;;;;4.03;3.83;;;;;;;2.08;84.98;96536.78;4300307;33;20278;-62
2023/01/23 10:20:43;;;;;;;4.77;4.47;;;;;;;1.72;85.69;96538.94;4274645;33;20322;-61
2023/01/23 10:23:20;;;;;;;2.77;2.40;;;;;;;1.96;86.31;96534.81;4309717;32;20325;-60
2023/01/23 10:25:46;;;;;;;4.47;4.27;;;;;;;2.03;86.09;96535.59;4316545;33;20325;-62
2023/01/23 10:28:40;;;;;;;4.87;4.67;;;;;;;2.03;85.52;96521.72;4331700;32;20281;-62
2023/01/23 10:31:38;;;;;;;4.10;3.67;;;;;;;1.99;86.05;96529.19;4316239;32;20206;-61
2023/01/23 10:34:12;;;;;;;5.53;5.03;;;;;;;1.94;85.78;96522.94;4269349;32;20361;-61
2023/01/23 10:37:06;;;;;;;5.07;4.33;;;;;;;1.55;87.50;96526.53;4337174;32;20307;-62
2023/01/23 10:39:52;;;;;;;2.70;2.50;;;;;;;2.05;87.02;96517.06;4295488;32;20410;-61
2023/01/23 10:42:21;;;;;;;4.70;4.23;;;;;;;2.10;86.48;96519.03;4314831;32;20286;-61
2023/01/23 10:44:47;;;;;;;4.10;3.90;;;;;;;2.16;85.34;96518.22;4334707;32;20292;-60
2023/01/23 10:47:35;;;;;;;4.97;4.67;;;;;;;2.14;85.87;96517.63;4320483;32;20269;-62
2023/01/23 10:50:03;;;;;;;3.17;3.07;;;;;;;2.14;85.76;96520.22;4312752;33;20263;-61
2023/01/23 10:52:58;;;;;;;5.10;4.70;;;;;;;2.12;85.79;96517.81;4327120;32;20288;-61
2023/01/23 10:55:29;;;;;;;7.60;6.87;;;;;;;2.12;85.46;96522.25;4319149;32;20287;-61
2023/01/23 10:58:01;;;;;;;11.47;6.97;;;;;;;2.11;85.90;96515.41;4329051;32;20401;-61
2023/01/23 11:00:43;;;;;;;7.03;6.47;;;;;;;2.01;86.43;96508.84;4315719;32;20271;-61
2023/01/23 11:03:23;;;;;;;5.57;5.07;;;;;;;1.86;86.99;96502.28;4300356;32;20277;-62
2023/01/23 11:06:15;;;;;;;5.03;4.73;;;;;;;1.96;87.27;96492.16;4322381;32;20305;-61
2023/01/23 11:08:56;;;;;;;4.33;4.10;;;;;;;2.13;87.14;96481.97;4327223;32;20267;-67
2023/01/23 11:11:25;;;;;;;3.87;3.67;;;;;;;2.45;85.72;96483.59;4320803;32;20274;-62
2023/01/23 11:14:11;;;;;;;3.83;3.53;;;;;;;2.68;85.43;96481.19;4341608;32;20346;-62
2023/01/23 11:16:37;;;;;;;6.10;5.43;;;;;;;2.55;84.86;96470.00;4282660;33;20310;-62
2023/01/23 11:19:10;;;;;;;6.37;5.77;;;;;;;2.59;84.41;96485.09;4314459;32;20321;-61
2023/01/23 11:21:51;;;;;;;3.37;3.23;;;;;;;2.31;85.36;96477.63;4317594;32;20285;-61
2023/01/23 11:24:27;;;;;;;4.33;4.03;;;;;;;2.24;85.98;96471.66;4300481;32;20278;-61
2023/01/23 11:27:18;;;;;;;8.23;7.53;;;;;;;2.32;85.85;96475.81;4312510;33;20353;-61
2023/01/23 11:30:02;;;;;;;9.70;6.10;;;;;;;2.45;85.49;96465.25;4324990;32;20316;-61
2023/01/23 11:32:33;;;;;;;7.17;4.97;;;;;;;2.24;86.18;96457.75;4319745;32;20274;-61
2023/01/23 11:35:11;;;;;;;4.87;4.30;;;;;;;2.11;87.52;96463.06;4319359;32;20274;-61
2023/01/23 11:37:39;;;;;;;4.77;4.47;;;;;;;2.06;87.68;96451.44;4306605;32;20279;-61
2023/01/23 11:40:25;;;;;;;3.67;3.37;;;;;;;1.94;88.33;96455.72;4299579;32;20341;-61
2023/01/23 11:42:51;;;;;;;2.97;2.87;;;;;;;2.06;88.66;96450.66;4314815;32;20325;-61
2023/01/23 11:45:31;;;;;;;5.57;4.77;;;;;;;2.02;88.61;96452.88;4316218;32;20280;-61
2023/01/23 11:48:54;;;;;;;3.97;3.77;;;;;;;1.92;89.45;96454.34;4318755;32;20227;-61
2023/01/23 11:51:26;;;;;;;3.33;3.10;;;;;;;1.98;89.55;96456.13;4247314;33;20288;-61
2023/01/23 11:54:37;;;;;;;5.37;4.97;;;;;;;2.10;88.91;96466.69;4245992;33;20288;-61
2023/01/23 11:57:32;;;;;;;3.40;3.20;;;;;;;1.91;89.71;96450.91;4298148;32;20383;-61
2023/01/23 12:00:16;;;;;;;3.57;3.37;;;;;;;2.08;89.46;96446.78;4328741;32;20385;-62
2023/01/23 12:03:03;;;;;;;7.13;4.10;;;;;;;2.11;89.53;96442.13;4284673;32;20324;-63
2023/01/23 12:06:01;;;;;;;2.97;2.87;;;;;;;2.12;89.12;96439.31;4305687;32;20313;-61